sensor_id;sensor_type;location;lat;lon;timestamp;temperature;humidity
44729;DHT22;30457;53.590;9.922;2023-05-10T00:03:11;19.60;30.50
44729;DHT22;30457;53.590;9.922;2023-05-10T00:07:37;19.50;30.60
44729;DHT22;30457;53.590;9.922;2023-05-10T00:12:02;19.50;30.80
44729;DHT22;30457;53.590;9.922;2023-05-10T00:16:28;19.40;30.90
44729;DHT22;30457;53.590;9.922;2023-05-10T00:20:54;19.40;31.20
44729;DHT22;30457;53.590;9.922;2023-05-10T00:25:19;19.30;31.30
44729;DHT22;30457;53.590;9.922;2023-05-10T00:29:46;19.30;31.60
44729;DHT22;30457;53.590;9.922;2023-05-10T00:34:12;19.20;31.60
44729;DHT22;30457;53.590;9.922;2023-05-10T00:38:37;19.20;31.90
44729;DHT22;30457;53.590;9.922;2023-05-10T00:43:03;19.10;32.10
44729;DHT22;30457;53.590;9.922;2023-05-10T00:47:29;19.10;32.20
44729;DHT22;30457;53.590;9.922;2023-05-10T00:51:55;19.00;33.00
44729;DHT22;30457;53.590;9.922;2023-05-10T00:56:21;19.00;32.60
44729;DHT22;30457;53.590;9.922;2023-05-10T01:00:48;19.00;32.60
44729;DHT22;30457;53.590;9.922;2023-05-10T01:05:14;18.90;32.90
44729;DHT22;30457;53.590;9.922;2023-05-10T01:09:40;18.90;33.00
44729;DHT22;30457;53.590;9.922;2023-05-10T01:14:06;18.80;33.10
44729;DHT22;30457;53.590;9.922;2023-05-10T01:18:38;18.80;33.90
44729;DHT22;30457;53.590;9.922;2023-05-10T01:32:42;18.60;33.90
44729;DHT22;30457;53.590;9.922;2023-05-10T01:37:16;18.60;33.90
44729;DHT22;30457;53.590;9.922;2023-05-10T01:42:03;18.50;34.20
44729;DHT22;30457;53.590;9.922;2023-05-10T01:46:36;18.50;34.30
44729;DHT22;30457;53.590;9.922;2023-05-10T01:51:03;18.40;34.60
44729;DHT22;30457;53.590;9.922;2023-05-10T01:55:34;18.40;34.30
44729;DHT22;30457;53.590;9.922;2023-05-10T02:00:07;18.30;34.40
44729;DHT22;30457;53.590;9.922;2023-05-10T02:04:40;18.30;34.70
44729;DHT22;30457;53.590;9.922;2023-05-10T02:09:07;18.20;34.50
44729;DHT22;30457;53.590;9.922;2023-05-10T02:13:36;18.20;34.70
44729;DHT22;30457;53.590;9.922;2023-05-10T02:18:02;18.20;34.90
44729;DHT22;30457;53.590;9.922;2023-05-10T02:22:29;18.20;34.90
44729;DHT22;30457;53.590;9.922;2023-05-10T02:26:56;18.10;35.00
44729;DHT22;30457;53.590;9.922;2023-05-10T02:31:22;18.10;35.20
44729;DHT22;30457;53.590;9.922;2023-05-10T02:35:49;18.00;35.20
44729;DHT22;30457;53.590;9.922;2023-05-10T02:40:16;17.90;35.40
44729;DHT22;30457;53.590;9.922;2023-05-10T02:44:43;17.90;35.40
44729;DHT22;30457;53.590;9.922;2023-05-10T02:49:10;17.90;35.40
44729;DHT22;30457;53.590;9.922;2023-05-10T02:53:38;17.80;35.50
44729;DHT22;30457;53.590;9.922;2023-05-10T02:58:06;17.80;35.70
44729;DHT22;30457;53.590;9.922;2023-05-10T03:02:31;17.70;35.70
44729;DHT22;30457;53.590;9.922;2023-05-10T03:06:58;17.70;36.00
44729;DHT22;30457;53.590;9.922;2023-05-10T03:16:08;17.60;36.50
44729;DHT22;30457;53.590;9.922;2023-05-10T03:20:38;17.60;36.50
44729;DHT22;30457;53.590;9.922;2023-05-10T03:25:07;17.60;36.50
44729;DHT22;30457;53.590;9.922;2023-05-10T03:29:38;17.50;36.50
44729;DHT22;30457;53.590;9.922;2023-05-10T03:34:04;17.50;36.70
44729;DHT22;30457;53.590;9.922;2023-05-10T03:38:31;17.50;36.70
44729;DHT22;30457;53.590;9.922;2023-05-10T03:42:58;17.50;36.90
44729;DHT22;30457;53.590;9.922;2023-05-10T03:47:24;17.50;37.00
44729;DHT22;30457;53.590;9.922;2023-05-10T03:51:49;17.40;37.00
44729;DHT22;30457;53.590;9.922;2023-05-10T03:56:15;17.40;37.00
44729;DHT22;30457;53.590;9.922;2023-05-10T04:00:41;17.40;37.20
44729;DHT22;30457;53.590;9.922;2023-05-10T04:05:10;17.30;37.20
44729;DHT22;30457;53.590;9.922;2023-05-10T04:09:35;17.30;37.30
44729;DHT22;30457;53.590;9.922;2023-05-10T04:14:01;17.30;37.30
44729;DHT22;30457;53.590;9.922;2023-05-10T04:18:26;17.30;37.50
44729;DHT22;30457;53.590;9.922;2023-05-10T04:22:52;17.40;37.60
44729;DHT22;30457;53.590;9.922;2023-05-10T04:27:18;17.30;37.70
44729;DHT22;30457;53.590;9.922;2023-05-10T04:31:43;17.30;38.00
44729;DHT22;30457;53.590;9.922;2023-05-10T04:36:09;17.30;38.00
44729;DHT22;30457;53.590;9.922;2023-05-10T04:40:34;17.20;38.10
44729;DHT22;30457;53.590;9.922;2023-05-10T04:45:01;17.20;38.00
44729;DHT22;30457;53.590;9.922;2023-05-10T04:49:26;17.30;38.10
44729;DHT22;30457;53.590;9.922;2023-05-10T04:53:52;17.30;38.10
44729;DHT22;30457;53.590;9.922;2023-05-10T04:58:19;17.30;38.40
44729;DHT22;30457;53.590;9.922;2023-05-10T05:02:45;17.30;38.50
44729;DHT22;30457;53.590;9.922;2023-05-10T05:07:10;17.40;38.60
44729;DHT22;30457;53.590;9.922;2023-05-10T05:11:36;17.40;38.60
44729;DHT22;30457;53.590;9.922;2023-05-10T05:16:02;17.50;38.70
44729;DHT22;30457;53.590;9.922;2023-05-10T05:20:28;17.50;38.70
44729;DHT22;30457;53.590;9.922;2023-05-10T05:24:57;17.60;38.90
44729;DHT22;30457;53.590;9.922;2023-05-10T05:29:23;17.70;38.80
44729;DHT22;30457;53.590;9.922;2023-05-10T05:33:49;17.80;38.70
44729;DHT22;30457;53.590;9.922;2023-05-10T05:38:14;17.90;38.70
44729;DHT22;30457;53.590;9.922;2023-05-10T05:42:42;18.10;38.60
44729;DHT22;30457;53.590;9.922;2023-05-10T05:47:07;18.10;38.60
44729;DHT22;30457;53.590;9.922;2023-05-10T05:51:33;18.30;38.60
44729;DHT22;30457;53.590;9.922;2023-05-10T05:56:00;18.40;38.40
44729;DHT22;30457;53.590;9.922;2023-05-10T06:00:25;18.50;38.40
44729;DHT22;30457;53.590;9.922;2023-05-10T06:04:51;18.60;38.30
44729;DHT22;30457;53.590;9.922;2023-05-10T06:09:16;18.80;38.20
44729;DHT22;30457;53.590;9.922;2023-05-10T06:13:42;18.90;38.20
44729;DHT22;30457;53.590;9.922;2023-05-10T06:18:08;19.00;37.90
44729;DHT22;30457;53.590;9.922;2023-05-10T06:22:33;19.10;37.70
44729;DHT22;30457;53.590;9.922;2023-05-10T06:26:59;19.20;37.60
44729;DHT22;30457;53.590;9.922;2023-05-10T06:31:25;19.30;37.60
44729;DHT22;30457;53.590;9.922;2023-05-10T06:35:51;19.30;37.70
44729;DHT22;30457;53.590;9.922;2023-05-10T06:40:18;19.40;37.80
44729;DHT22;30457;53.590;9.922;2023-05-10T06:44:43;19.50;37.70
44729;DHT22;30457;53.590;9.922;2023-05-10T06:49:09;19.60;37.90
44729;DHT22;30457;53.590;9.922;2023-05-10T06:53:35;19.60;37.80
44729;DHT22;30457;53.590;9.922;2023-05-10T06:58:00;19.70;37.80
44729;DHT22;30457;53.590;9.922;2023-05-10T07:02:26;19.80;37.70
44729;DHT22;30457;53.590;9.922;2023-05-10T07:06:52;20.00;37.80
44729;DHT22;30457;53.590;9.922;2023-05-10T07:11:18;20.10;37.80
44729;DHT22;30457;53.590;9.922;2023-05-10T07:15:43;20.30;37.80
44729;DHT22;30457;53.590;9.922;2023-05-10T07:20:10;20.40;37.40
44729;DHT22;30457;53.590;9.922;2023-05-10T07:24:35;20.60;37.50
44729;DHT22;30457;53.590;9.922;2023-05-10T07:29:01;20.80;37.00
44729;DHT22;30457;53.590;9.922;2023-05-10T07:33:28;20.90;37.00
44729;DHT22;30457;53.590;9.922;2023-05-10T07:37:53;21.00;36.80
44729;DHT22;30457;53.590;9.922;2023-05-10T07:42:19;21.10;36.70
44729;DHT22;30457;53.590;9.922;2023-05-10T07:46:44;21.20;37.50
44729;DHT22;30457;53.590;9.922;2023-05-10T07:51:10;21.30;37.00
44729;DHT22;30457;53.590;9.922;2023-05-10T07:55:36;21.40;36.50
44729;DHT22;30457;53.590;9.922;2023-05-10T08:00:01;21.50;36.50
44729;DHT22;30457;53.590;9.922;2023-05-10T08:04:27;21.60;36.30
44729;DHT22;30457;53.590;9.922;2023-05-10T08:08:53;21.60;35.80
44729;DHT22;30457;53.590;9.922;2023-05-10T08:13:19;21.70;36.10
44729;DHT22;30457;53.590;9.922;2023-05-10T08:17:45;21.70;36.10
44729;DHT22;30457;53.590;9.922;2023-05-10T08:22:10;21.70;35.90
44729;DHT22;30457;53.590;9.922;2023-05-10T08:26:36;21.80;36.60
44729;DHT22;30457;53.590;9.922;2023-05-10T08:31:01;21.90;36.50
44729;DHT22;30457;53.590;9.922;2023-05-10T08:35:27;22.00;36.50
44729;DHT22;30457;53.590;9.922;2023-05-10T08:39:52;22.10;36.50
44729;DHT22;30457;53.590;9.922;2023-05-10T08:44:19;22.10;36.30
44729;DHT22;30457;53.590;9.922;2023-05-10T08:48:45;22.20;36.30
44729;DHT22;30457;53.590;9.922;2023-05-10T08:53:13;22.30;36.10
44729;DHT22;30457;53.590;9.922;2023-05-10T08:57:38;22.40;36.00
44729;DHT22;30457;53.590;9.922;2023-05-10T09:02:05;22.50;36.20
44729;DHT22;30457;53.590;9.922;2023-05-10T09:06:30;22.60;36.00
44729;DHT22;30457;53.590;9.922;2023-05-10T09:10:57;22.60;35.60
44729;DHT22;30457;53.590;9.922;2023-05-10T09:15:23;22.70;36.40
44729;DHT22;30457;53.590;9.922;2023-05-10T09:19:48;22.80;36.40
44729;DHT22;30457;53.590;9.922;2023-05-10T09:24:14;22.80;36.40
44729;DHT22;30457;53.590;9.922;2023-05-10T09:28:57;22.90;36.20
44729;DHT22;30457;53.590;9.922;2023-05-10T09:33:23;22.90;36.30
44729;DHT22;30457;53.590;9.922;2023-05-10T09:37:51;22.90;36.10
44729;DHT22;30457;53.590;9.922;2023-05-10T09:42:18;22.80;36.30
44729;DHT22;30457;53.590;9.922;2023-05-10T09:46:48;22.80;37.10
44729;DHT22;30457;53.590;9.922;2023-05-10T09:51:22;22.70;37.60
44729;DHT22;30457;53.590;9.922;2023-05-10T09:55:48;22.60;39.00
44729;DHT22;30457;53.590;9.922;2023-05-10T10:00:19;22.50;38.20
44729;DHT22;30457;53.590;9.922;2023-05-10T10:04:49;22.40;38.40
44729;DHT22;30457;53.590;9.922;2023-05-10T10:09:14;22.30;39.30
44729;DHT22;30457;53.590;9.922;2023-05-10T10:13:40;22.20;39.50
44729;DHT22;30457;53.590;9.922;2023-05-10T10:18:06;22.10;39.30
44729;DHT22;30457;53.590;9.922;2023-05-10T10:22:33;21.90;39.80
44729;DHT22;30457;53.590;9.922;2023-05-10T10:32:07;21.70;41.40
44729;DHT22;30457;53.590;9.922;2023-05-10T10:36:46;21.60;42.30
44729;DHT22;30457;53.590;9.922;2023-05-10T10:41:28;21.50;42.90
44729;DHT22;30457;53.590;9.922;2023-05-10T10:46:19;21.40;42.80
44729;DHT22;30457;53.590;9.922;2023-05-10T10:50:46;21.30;43.30
44729;DHT22;30457;53.590;9.922;2023-05-10T10:55:18;21.30;42.70
44729;DHT22;30457;53.590;9.922;2023-05-10T10:59:44;21.30;44.20
44729;DHT22;30457;53.590;9.922;2023-05-10T11:08:42;21.30;43.70
44729;DHT22;30457;53.590;9.922;2023-05-10T11:13:11;21.30;43.90
44729;DHT22;30457;53.590;9.922;2023-05-10T11:17:36;21.30;43.70
44729;DHT22;30457;53.590;9.922;2023-05-10T11:26:32;21.20;44.10
44729;DHT22;30457;53.590;9.922;2023-05-10T11:30:59;21.10;44.20
44729;DHT22;30457;53.590;9.922;2023-05-10T11:35:27;21.10;44.40
44729;DHT22;30457;53.590;9.922;2023-05-10T11:39:54;21.00;45.20
44729;DHT22;30457;53.590;9.922;2023-05-10T11:44:20;21.10;45.00
44729;DHT22;30457;53.590;9.922;2023-05-10T11:48:47;21.10;45.30
44729;DHT22;30457;53.590;9.922;2023-05-10T11:53:14;21.10;45.20
44729;DHT22;30457;53.590;9.922;2023-05-10T11:57:39;21.10;45.20
44729;DHT22;30457;53.590;9.922;2023-05-10T12:02:07;21.10;45.40
44729;DHT22;30457;53.590;9.922;2023-05-10T12:06:37;21.10;45.30
44729;DHT22;30457;53.590;9.922;2023-05-10T12:11:07;21.10;46.20
44729;DHT22;30457;53.590;9.922;2023-05-10T12:15:33;21.00;46.00
44729;DHT22;30457;53.590;9.922;2023-05-10T12:20:12;21.00;45.80
44729;DHT22;30457;53.590;9.922;2023-05-10T12:24:39;21.00;46.30
44729;DHT22;30457;53.590;9.922;2023-05-10T12:29:19;21.00;47.20
44729;DHT22;30457;53.590;9.922;2023-05-10T12:33:46;21.00;47.10
44729;DHT22;30457;53.590;9.922;2023-05-10T12:43:03;21.10;47.60
44729;DHT22;30457;53.590;9.922;2023-05-10T12:47:29;21.10;47.30
44729;DHT22;30457;53.590;9.922;2023-05-10T12:51:55;21.20;47.10
44729;DHT22;30457;53.590;9.922;2023-05-10T12:56:20;21.20;47.00
44729;DHT22;30457;53.590;9.922;2023-05-10T13:00:46;21.30;47.10
44729;DHT22;30457;53.590;9.922;2023-05-10T13:05:12;21.30;47.70
44729;DHT22;30457;53.590;9.922;2023-05-10T13:09:38;21.40;47.20
44729;DHT22;30457;53.590;9.922;2023-05-10T13:14:04;21.50;47.70
44729;DHT22;30457;53.590;9.922;2023-05-10T13:18:30;21.60;47.70
44729;DHT22;30457;53.590;9.922;2023-05-10T13:22:55;21.70;47.70
44729;DHT22;30457;53.590;9.922;2023-05-10T13:27:21;21.80;48.10
44729;DHT22;30457;53.590;9.922;2023-05-10T13:31:46;21.90;48.00
44729;DHT22;30457;53.590;9.922;2023-05-10T13:36:12;22.00;47.80
44729;DHT22;30457;53.590;9.922;2023-05-10T13:40:38;22.10;47.10
44729;DHT22;30457;53.590;9.922;2023-05-10T13:45:03;22.20;47.60
44729;DHT22;30457;53.590;9.922;2023-05-10T13:49:29;22.30;47.60
44729;DHT22;30457;53.590;9.922;2023-05-10T13:53:55;22.30;47.20
44729;DHT22;30457;53.590;9.922;2023-05-10T13:58:20;22.30;47.00
44729;DHT22;30457;53.590;9.922;2023-05-10T14:02:46;22.40;46.90
44729;DHT22;30457;53.590;9.922;2023-05-10T14:07:11;22.40;47.00
44729;DHT22;30457;53.590;9.922;2023-05-10T14:11:37;22.50;47.00
44729;DHT22;30457;53.590;9.922;2023-05-10T14:16:07;22.60;47.10
44729;DHT22;30457;53.590;9.922;2023-05-10T14:20:32;22.60;46.70
44729;DHT22;30457;53.590;9.922;2023-05-10T14:24:59;22.70;46.30
44729;DHT22;30457;53.590;9.922;2023-05-10T14:29:24;22.80;47.10
44729;DHT22;30457;53.590;9.922;2023-05-10T14:33:50;22.80;46.30
44729;DHT22;30457;53.590;9.922;2023-05-10T14:38:16;22.80;46.30
44729;DHT22;30457;53.590;9.922;2023-05-10T14:42:42;22.90;45.80
44729;DHT22;30457;53.590;9.922;2023-05-10T14:47:08;22.90;45.90
44729;DHT22;30457;53.590;9.922;2023-05-10T14:51:33;22.90;45.90
44729;DHT22;30457;53.590;9.922;2023-05-10T14:55:59;22.90;46.10
44729;DHT22;30457;53.590;9.922;2023-05-10T15:00:28;22.90;46.10
44729;DHT22;30457;53.590;9.922;2023-05-10T15:04:54;22.90;46.30
44729;DHT22;30457;53.590;9.922;2023-05-10T15:09:19;22.90;46.30
44729;DHT22;30457;53.590;9.922;2023-05-10T15:13:45;23.00;46.20
44729;DHT22;30457;53.590;9.922;2023-05-10T15:18:11;23.00;45.90
44729;DHT22;30457;53.590;9.922;2023-05-10T15:22:36;23.00;46.10
44729;DHT22;30457;53.590;9.922;2023-05-10T15:27:03;23.00;46.20
44729;DHT22;30457;53.590;9.922;2023-05-10T15:31:29;23.00;46.00
44729;DHT22;30457;53.590;9.922;2023-05-10T15:35:54;23.10;46.00
44729;DHT22;30457;53.590;9.922;2023-05-10T15:40:20;23.00;45.60
44729;DHT22;30457;53.590;9.922;2023-05-10T15:44:45;23.00;45.70
44729;DHT22;30457;53.590;9.922;2023-05-10T15:49:15;22.90;45.70
44729;DHT22;30457;53.590;9.922;2023-05-10T15:53:40;22.80;45.70
44729;DHT22;30457;53.590;9.922;2023-05-10T15:58:06;22.80;46.00
44729;DHT22;30457;53.590;9.922;2023-05-10T16:02:32;22.70;46.30
44729;DHT22;30457;53.590;9.922;2023-05-10T16:06:57;22.60;46.70
44729;DHT22;30457;53.590;9.922;2023-05-10T16:11:23;22.50;47.10
44729;DHT22;30457;53.590;9.922;2023-05-10T16:15:48;22.30;48.10
44729;DHT22;30457;53.590;9.922;2023-05-10T16:20:14;22.20;47.80
44729;DHT22;30457;53.590;9.922;2023-05-10T16:24:39;22.00;47.90
44729;DHT22;30457;53.590;9.922;2023-05-10T16:29:07;21.90;48.50
44729;DHT22;30457;53.590;9.922;2023-05-10T16:33:32;21.90;49.20
44729;DHT22;30457;53.590;9.922;2023-05-10T16:37:58;21.80;49.10
44729;DHT22;30457;53.590;9.922;2023-05-10T16:42:23;21.80;49.30
44729;DHT22;30457;53.590;9.922;2023-05-10T16:46:50;21.70;49.40
44729;DHT22;30457;53.590;9.922;2023-05-10T16:51:17;21.70;49.70
44729;DHT22;30457;53.590;9.922;2023-05-10T16:55:42;21.70;49.80
44729;DHT22;30457;53.590;9.922;2023-05-10T17:00:09;21.70;49.80
44729;DHT22;30457;53.590;9.922;2023-05-10T17:04:36;21.70;50.00
44729;DHT22;30457;53.590;9.922;2023-05-10T17:09:01;21.60;50.30
44729;DHT22;30457;53.590;9.922;2023-05-10T17:13:28;21.60;50.20
44729;DHT22;30457;53.590;9.922;2023-05-10T17:17:54;21.70;50.50
44729;DHT22;30457;53.590;9.922;2023-05-10T17:22:20;21.70;50.40
44729;DHT22;30457;53.590;9.922;2023-05-10T17:26:45;21.70;50.50
44729;DHT22;30457;53.590;9.922;2023-05-10T17:31:11;21.70;50.10
44729;DHT22;30457;53.590;9.922;2023-05-10T17:35:36;21.60;49.90
44729;DHT22;30457;53.590;9.922;2023-05-10T17:40:02;21.50;49.70
44729;DHT22;30457;53.590;9.922;2023-05-10T17:44:30;21.40;49.50
44729;DHT22;30457;53.590;9.922;2023-05-10T17:48:55;21.20;49.50
44729;DHT22;30457;53.590;9.922;2023-05-10T17:53:21;21.00;49.70
44729;DHT22;30457;53.590;9.922;2023-05-10T17:57:46;20.80;49.70
44729;DHT22;30457;53.590;9.922;2023-05-10T18:02:12;20.70;50.10
44729;DHT22;30457;53.590;9.922;2023-05-10T18:06:38;20.50;50.20
44729;DHT22;30457;53.590;9.922;2023-05-10T18:11:03;20.40;50.70
44729;DHT22;30457;53.590;9.922;2023-05-10T18:15:30;20.30;51.10
44729;DHT22;30457;53.590;9.922;2023-05-10T18:19:56;20.20;51.20
44729;DHT22;30457;53.590;9.922;2023-05-10T18:24:21;20.10;51.50
44729;DHT22;30457;53.590;9.922;2023-05-10T18:28:47;20.00;51.50
44729;DHT22;30457;53.590;9.922;2023-05-10T18:33:12;19.90;51.60
44729;DHT22;30457;53.590;9.922;2023-05-10T18:37:38;19.90;51.60
44729;DHT22;30457;53.590;9.922;2023-05-10T18:42:04;19.80;51.70
44729;DHT22;30457;53.590;9.922;2023-05-10T18:46:30;19.70;51.60
44729;DHT22;30457;53.590;9.922;2023-05-10T18:50:55;19.70;51.70
44729;DHT22;30457;53.590;9.922;2023-05-10T18:55:23;19.60;51.60
44729;DHT22;30457;53.590;9.922;2023-05-10T18:59:50;19.50;51.80
44729;DHT22;30457;53.590;9.922;2023-05-10T19:04:15;19.50;51.90
44729;DHT22;30457;53.590;9.922;2023-05-10T19:08:41;19.40;51.90
44729;DHT22;30457;53.590;9.922;2023-05-10T19:13:06;19.30;52.00
44729;DHT22;30457;53.590;9.922;2023-05-10T19:17:32;19.30;52.20
44729;DHT22;30457;53.590;9.922;2023-05-10T19:21:57;19.20;52.40
44729;DHT22;30457;53.590;9.922;2023-05-10T19:26:23;19.20;52.20
44729;DHT22;30457;53.590;9.922;2023-05-10T19:30:48;19.10;52.30
44729;DHT22;30457;53.590;9.922;2023-05-10T19:35:14;19.10;52.40
44729;DHT22;30457;53.590;9.922;2023-05-10T19:39:40;19.10;52.50
44729;DHT22;30457;53.590;9.922;2023-05-10T19:44:06;19.00;52.20
44729;DHT22;30457;53.590;9.922;2023-05-10T19:48:32;19.00;52.30
44729;DHT22;30457;53.590;9.922;2023-05-10T19:52:57;18.90;52.30
44729;DHT22;30457;53.590;9.922;2023-05-10T19:57:24;18.90;52.10
44729;DHT22;30457;53.590;9.922;2023-05-10T20:01:50;18.80;52.20
44729;DHT22;30457;53.590;9.922;2023-05-10T20:06:16;18.70;52.20
44729;DHT22;30457;53.590;9.922;2023-05-10T20:10:41;18.70;52.30
44729;DHT22;30457;53.590;9.922;2023-05-10T20:15:07;18.60;52.50
44729;DHT22;30457;53.590;9.922;2023-05-10T20:19:32;18.50;52.50
44729;DHT22;30457;53.590;9.922;2023-05-10T20:23:58;18.50;52.50
44729;DHT22;30457;53.590;9.922;2023-05-10T20:28:24;18.50;52.90
44729;DHT22;30457;53.590;9.922;2023-05-10T20:32:50;18.40;52.90
44729;DHT22;30457;53.590;9.922;2023-05-10T20:37:16;18.30;52.80
44729;DHT22;30457;53.590;9.922;2023-05-10T20:41:43;18.30;52.90
44729;DHT22;30457;53.590;9.922;2023-05-10T20:46:08;18.30;53.00
44729;DHT22;30457;53.590;9.922;2023-05-10T20:50:34;18.20;53.00
44729;DHT22;30457;53.590;9.922;2023-05-10T20:55:00;18.20;53.10
44729;DHT22;30457;53.590;9.922;2023-05-10T20:59:25;18.20;53.30
44729;DHT22;30457;53.590;9.922;2023-05-10T21:03:51;18.10;53.30
44729;DHT22;30457;53.590;9.922;2023-05-10T21:08:16;18.10;53.40
44729;DHT22;30457;53.590;9.922;2023-05-10T21:12:42;18.00;53.30
44729;DHT22;30457;53.590;9.922;2023-05-10T21:17:08;18.00;53.30
44729;DHT22;30457;53.590;9.922;2023-05-10T21:21:33;17.90;53.10
44729;DHT22;30457;53.590;9.922;2023-05-10T21:26:01;17.90;53.20
44729;DHT22;30457;53.590;9.922;2023-05-10T21:30:27;17.80;53.50
44729;DHT22;30457;53.590;9.922;2023-05-10T21:34:52;17.80;53.70
44729;DHT22;30457;53.590;9.922;2023-05-10T21:39:18;17.80;53.80
44729;DHT22;30457;53.590;9.922;2023-05-10T21:43:44;17.70;53.70
44729;DHT22;30457;53.590;9.922;2023-05-10T21:48:09;17.70;53.60
44729;DHT22;30457;53.590;9.922;2023-05-10T21:52:38;17.70;53.70
44729;DHT22;30457;53.590;9.922;2023-05-10T21:57:03;17.70;53.80
44729;DHT22;30457;53.590;9.922;2023-05-10T22:01:29;17.70;53.80
44729;DHT22;30457;53.590;9.922;2023-05-10T22:05:54;17.70;54.00
44729;DHT22;30457;53.590;9.922;2023-05-10T22:10:20;17.60;53.90
44729;DHT22;30457;53.590;9.922;2023-05-10T22:14:46;17.70;53.90
44729;DHT22;30457;53.590;9.922;2023-05-10T22:19:11;17.60;54.00
44729;DHT22;30457;53.590;9.922;2023-05-10T22:23:37;17.60;53.90
44729;DHT22;30457;53.590;9.922;2023-05-10T22:28:02;17.60;53.90
44729;DHT22;30457;53.590;9.922;2023-05-10T22:32:29;17.60;54.10
44729;DHT22;30457;53.590;9.922;2023-05-10T22:36:54;17.50;54.10
44729;DHT22;30457;53.590;9.922;2023-05-10T22:41:21;17.60;54.20
44729;DHT22;30457;53.590;9.922;2023-05-10T22:45:47;17.60;54.40
44729;DHT22;30457;53.590;9.922;2023-05-10T22:50:13;17.60;54.40
44729;DHT22;30457;53.590;9.922;2023-05-10T22:54:38;17.50;54.40
44729;DHT22;30457;53.590;9.922;2023-05-10T22:59:04;17.60;54.50
44729;DHT22;30457;53.590;9.922;2023-05-10T23:03:29;17.60;54.30
44729;DHT22;30457;53.590;9.922;2023-05-10T23:07:55;17.50;54.20
44729;DHT22;30457;53.590;9.922;2023-05-10T23:12:21;17.50;54.20
44729;DHT22;30457;53.590;9.922;2023-05-10T23:16:46;17.50;54.30
44729;DHT22;30457;53.590;9.922;2023-05-10T23:21:12;17.50;54.40
44729;DHT22;30457;53.590;9.922;2023-05-10T23:25:37;17.50;54.40
44729;DHT22;30457;53.590;9.922;2023-05-10T23:30:03;17.50;54.50
44729;DHT22;30457;53.590;9.922;2023-05-10T23:34:29;17.50;54.40
44729;DHT22;30457;53.590;9.922;2023-05-10T23:38:54;17.50;54.40
44729;DHT22;30457;53.590;9.922;2023-05-10T23:43:20;17.50;54.40
44729;DHT22;30457;53.590;9.922;2023-05-10T23:47:46;17.50;54.60
44729;DHT22;30457;53.590;9.922;2023-05-10T23:52:11;17.40;54.50
44729;DHT22;30457;53.590;9.922;2023-05-10T23:56:37;17.40;54.60
